sensor_id;sensor_type;location;lat;lon;timestamp;P1;durP1;ratioP1;P2;durP2;ratioP2
10059;SDS011;5069;49.306;8.636;2022-08-19T00:01:09;16.13;;;14.07;;
10059;SDS011;5069;49.306;8.636;2022-08-19T00:04:12;15.30;;;13.80;;
10059;SDS011;5069;49.306;8.636;2022-08-19T00:07:14;16.03;;;14.33;;
10059;SDS011;5069;49.306;8.636;2022-08-19T00:10:16;16.87;;;14.57;;
10059;SDS011;5069;49.306;8.636;2022-08-19T00:13:19;15.33;;;13.73;;
10059;SDS011;5069;49.306;8.636;2022-08-19T00:16:21;17.40;;;14.00;;
10059;SDS011;5069;49.306;8.636;2022-08-19T00:19:26;16.10;;;14.40;;
10059;SDS011;5069;49.306;8.636;2022-08-19T00:22:28;16.83;;;14.33;;
10059;SDS011;5069;49.306;8.636;2022-08-19T00:25:29;17.57;;;15.50;;
10059;SDS011;5069;49.306;8.636;2022-08-19T00:28:31;17.10;;;14.60;;
10059;SDS011;5069;49.306;8.636;2022-08-19T00:31:36;18.17;;;14.87;;
10059;SDS011;5069;49.306;8.636;2022-08-19T00:34:37;17.60;;;15.33;;
10059;SDS011;5069;49.306;8.636;2022-08-19T00:37:39;18.23;;;15.20;;
10059;SDS011;5069;49.306;8.636;2022-08-19T00:40:44;18.90;;;15.97;;
10059;SDS011;5069;49.306;8.636;2022-08-19T00:44:01;17.40;;;15.60;;
10059;SDS011;5069;49.306;8.636;2022-08-19T00:47:15;17.03;;;15.17;;
10059;SDS011;5069;49.306;8.636;2022-08-19T00:50:17;18.60;;;16.30;;
10059;SDS011;5069;49.306;8.636;2022-08-19T00:53:23;16.23;;;14.40;;
10059;SDS011;5069;49.306;8.636;2022-08-19T00:56:28;17.17;;;15.37;;
10059;SDS011;5069;49.306;8.636;2022-08-19T00:59:31;17.10;;;15.47;;
10059;SDS011;5069;49.306;8.636;2022-08-19T01:02:55;18.03;;;15.43;;
10059;SDS011;5069;49.306;8.636;2022-08-19T01:05:58;18.70;;;16.50;;
10059;SDS011;5069;49.306;8.636;2022-08-19T01:09:01;16.90;;;15.27;;
10059;SDS011;5069;49.306;8.636;2022-08-19T01:12:02;17.83;;;15.93;;
10059;SDS011;5069;49.306;8.636;2022-08-19T01:15:05;19.10;;;17.10;;
10059;SDS011;5069;49.306;8.636;2022-08-19T01:18:12;18.40;;;16.43;;
10059;SDS011;5069;49.306;8.636;2022-08-19T01:21:18;18.03;;;16.30;;
10059;SDS011;5069;49.306;8.636;2022-08-19T01:24:27;18.10;;;16.30;;
10059;SDS011;5069;49.306;8.636;2022-08-19T01:27:39;18.40;;;16.50;;
10059;SDS011;5069;49.306;8.636;2022-08-19T01:30:44;19.43;;;17.37;;
10059;SDS011;5069;49.306;8.636;2022-08-19T01:33:52;17.87;;;15.90;;
10059;SDS011;5069;49.306;8.636;2022-08-19T01:36:55;16.33;;;14.73;;
10059;SDS011;5069;49.306;8.636;2022-08-19T01:39:57;18.30;;;16.57;;
10059;SDS011;5069;49.306;8.636;2022-08-19T01:42:59;19.30;;;17.23;;
10059;SDS011;5069;49.306;8.636;2022-08-19T01:46:01;19.17;;;17.03;;
10059;SDS011;5069;49.306;8.636;2022-08-19T01:49:04;17.30;;;15.50;;
10059;SDS011;5069;49.306;8.636;2022-08-19T01:52:07;17.77;;;15.97;;
10059;SDS011;5069;49.306;8.636;2022-08-19T01:55:10;18.90;;;16.90;;
10059;SDS011;5069;49.306;8.636;2022-08-19T01:58:19;18.53;;;16.53;;
10059;SDS011;5069;49.306;8.636;2022-08-19T02:01:23;17.73;;;15.93;;
10059;SDS011;5069;49.306;8.636;2022-08-19T02:04:31;17.60;;;15.80;;
10059;SDS011;5069;49.306;8.636;2022-08-19T02:07:32;17.93;;;16.13;;
10059;SDS011;5069;49.306;8.636;2022-08-19T02:10:37;18.13;;;16.20;;
10059;SDS011;5069;49.306;8.636;2022-08-19T02:13:41;18.43;;;16.43;;
10059;SDS011;5069;49.306;8.636;2022-08-19T02:16:43;18.47;;;16.60;;
10059;SDS011;5069;49.306;8.636;2022-08-19T02:19:44;19.10;;;17.10;;
10059;SDS011;5069;49.306;8.636;2022-08-19T02:22:45;19.47;;;17.47;;
10059;SDS011;5069;49.306;8.636;2022-08-19T02:25:47;19.33;;;17.47;;
10059;SDS011;5069;49.306;8.636;2022-08-19T02:28:49;19.23;;;16.83;;
10059;SDS011;5069;49.306;8.636;2022-08-19T02:31:51;19.90;;;17.80;;
10059;SDS011;5069;49.306;8.636;2022-08-19T02:34:52;19.80;;;17.90;;
10059;SDS011;5069;49.306;8.636;2022-08-19T02:37:54;18.63;;;16.63;;
10059;SDS011;5069;49.306;8.636;2022-08-19T02:41:15;18.53;;;16.73;;
10059;SDS011;5069;49.306;8.636;2022-08-19T02:44:19;20.13;;;18.10;;
10059;SDS011;5069;49.306;8.636;2022-08-19T02:47:31;19.37;;;17.37;;
10059;SDS011;5069;49.306;8.636;2022-08-19T02:50:33;19.77;;;17.80;;
10059;SDS011;5069;49.306;8.636;2022-08-19T02:53:34;20.17;;;18.13;;
10059;SDS011;5069;49.306;8.636;2022-08-19T02:56:36;21.03;;;18.90;;
10059;SDS011;5069;49.306;8.636;2022-08-19T02:59:39;21.03;;;19.03;;
10059;SDS011;5069;49.306;8.636;2022-08-19T03:02:41;22.40;;;20.20;;
10059;SDS011;5069;49.306;8.636;2022-08-19T03:05:43;21.73;;;19.53;;
10059;SDS011;5069;49.306;8.636;2022-08-19T03:08:57;20.50;;;18.50;;
10059;SDS011;5069;49.306;8.636;2022-08-19T03:11:59;20.30;;;18.40;;
10059;SDS011;5069;49.306;8.636;2022-08-19T03:15:00;20.87;;;18.67;;
10059;SDS011;5069;49.306;8.636;2022-08-19T03:18:02;22.27;;;19.40;;
10059;SDS011;5069;49.306;8.636;2022-08-19T03:21:03;20.20;;;18.07;;
10059;SDS011;5069;49.306;8.636;2022-08-19T03:24:06;20.53;;;18.43;;
10059;SDS011;5069;49.306;8.636;2022-08-19T03:27:09;21.53;;;19.43;;
10059;SDS011;5069;49.306;8.636;2022-08-19T03:30:11;19.83;;;17.93;;
10059;SDS011;5069;49.306;8.636;2022-08-19T03:33:13;20.03;;;18.17;;
10059;SDS011;5069;49.306;8.636;2022-08-19T03:36:28;19.60;;;17.73;;
10059;SDS011;5069;49.306;8.636;2022-08-19T03:39:30;21.17;;;19.17;;
10059;SDS011;5069;49.306;8.636;2022-08-19T03:42:31;21.60;;;18.63;;
10059;SDS011;5069;49.306;8.636;2022-08-19T03:46:10;20.47;;;18.57;;
10059;SDS011;5069;49.306;8.636;2022-08-19T03:49:13;22.30;;;20.20;;
10059;SDS011;5069;49.306;8.636;2022-08-19T03:52:15;22.07;;;19.90;;
10059;SDS011;5069;49.306;8.636;2022-08-19T03:55:17;23.83;;;20.93;;
10059;SDS011;5069;49.306;8.636;2022-08-19T03:58:19;24.37;;;21.77;;
10059;SDS011;5069;49.306;8.636;2022-08-19T04:01:22;22.33;;;20.20;;
10059;SDS011;5069;49.306;8.636;2022-08-19T04:04:39;22.50;;;20.10;;
10059;SDS011;5069;49.306;8.636;2022-08-19T04:07:44;21.13;;;18.87;;
10059;SDS011;5069;49.306;8.636;2022-08-19T04:10:46;21.33;;;19.13;;
10059;SDS011;5069;49.306;8.636;2022-08-19T04:13:49;20.87;;;18.87;;
10059;SDS011;5069;49.306;8.636;2022-08-19T04:16:52;21.33;;;19.27;;
10059;SDS011;5069;49.306;8.636;2022-08-19T04:19:53;21.63;;;19.53;;
10059;SDS011;5069;49.306;8.636;2022-08-19T04:22:56;20.77;;;18.77;;
10059;SDS011;5069;49.306;8.636;2022-08-19T04:25:58;22.23;;;18.97;;
10059;SDS011;5069;49.306;8.636;2022-08-19T04:29:00;20.57;;;18.57;;
10059;SDS011;5069;49.306;8.636;2022-08-19T04:32:04;20.63;;;18.53;;
10059;SDS011;5069;49.306;8.636;2022-08-19T04:35:09;21.43;;;19.23;;
10059;SDS011;5069;49.306;8.636;2022-08-19T04:38:19;21.37;;;19.37;;
10059;SDS011;5069;49.306;8.636;2022-08-19T04:41:23;21.70;;;19.37;;
10059;SDS011;5069;49.306;8.636;2022-08-19T04:44:44;22.43;;;20.30;;
10059;SDS011;5069;49.306;8.636;2022-08-19T04:47:46;19.90;;;17.90;;
10059;SDS011;5069;49.306;8.636;2022-08-19T04:51:09;21.77;;;19.40;;
10059;SDS011;5069;49.306;8.636;2022-08-19T04:54:14;20.97;;;18.97;;
10059;SDS011;5069;49.306;8.636;2022-08-19T04:57:37;21.60;;;18.83;;
10059;SDS011;5069;49.306;8.636;2022-08-19T05:00:41;21.00;;;18.77;;
10059;SDS011;5069;49.306;8.636;2022-08-19T05:03:42;22.23;;;20.07;;
10059;SDS011;5069;49.306;8.636;2022-08-19T05:06:44;21.73;;;18.73;;
10059;SDS011;5069;49.306;8.636;2022-08-19T05:09:46;21.40;;;19.30;;
10059;SDS011;5069;49.306;8.636;2022-08-19T05:12:59;22.47;;;19.93;;
10059;SDS011;5069;49.306;8.636;2022-08-19T05:16:00;22.23;;;19.90;;
10059;SDS011;5069;49.306;8.636;2022-08-19T05:19:02;21.13;;;19.10;;
10059;SDS011;5069;49.306;8.636;2022-08-19T05:22:22;22.57;;;20.23;;
10059;SDS011;5069;49.306;8.636;2022-08-19T05:25:38;22.50;;;20.30;;
10059;SDS011;5069;49.306;8.636;2022-08-19T05:28:41;21.37;;;19.03;;
10059;SDS011;5069;49.306;8.636;2022-08-19T05:31:43;21.43;;;19.17;;
10059;SDS011;5069;49.306;8.636;2022-08-19T05:34:46;22.60;;;20.37;;
10059;SDS011;5069;49.306;8.636;2022-08-19T05:37:47;22.80;;;20.60;;
10059;SDS011;5069;49.306;8.636;2022-08-19T05:40:55;21.57;;;19.47;;
10059;SDS011;5069;49.306;8.636;2022-08-19T05:43:57;22.00;;;19.67;;
10059;SDS011;5069;49.306;8.636;2022-08-19T05:46:59;21.83;;;19.50;;
10059;SDS011;5069;49.306;8.636;2022-08-19T05:50:03;22.03;;;19.83;;
10059;SDS011;5069;49.306;8.636;2022-08-19T05:53:06;22.00;;;19.77;;
10059;SDS011;5069;49.306;8.636;2022-08-19T05:56:09;22.57;;;20.27;;
10059;SDS011;5069;49.306;8.636;2022-08-19T05:59:14;22.07;;;19.67;;
10059;SDS011;5069;49.306;8.636;2022-08-19T06:02:19;22.90;;;20.60;;
10059;SDS011;5069;49.306;8.636;2022-08-19T06:05:20;21.40;;;19.20;;
10059;SDS011;5069;49.306;8.636;2022-08-19T06:08:22;19.20;;;17.33;;
10059;SDS011;5069;49.306;8.636;2022-08-19T06:11:42;21.50;;;19.30;;
10059;SDS011;5069;49.306;8.636;2022-08-19T06:14:46;19.87;;;17.83;;
10059;SDS011;5069;49.306;8.636;2022-08-19T06:18:01;20.67;;;18.57;;
10059;SDS011;5069;49.306;8.636;2022-08-19T06:21:03;20.60;;;18.03;;
10059;SDS011;5069;49.306;8.636;2022-08-19T06:24:06;20.27;;;18.23;;
10059;SDS011;5069;49.306;8.636;2022-08-19T06:27:08;23.10;;;20.73;;
10059;SDS011;5069;49.306;8.636;2022-08-19T06:30:10;21.00;;;18.80;;
10059;SDS011;5069;49.306;8.636;2022-08-19T06:33:13;20.93;;;18.83;;
10059;SDS011;5069;49.306;8.636;2022-08-19T06:36:18;21.20;;;18.93;;
10059;SDS011;5069;49.306;8.636;2022-08-19T06:39:29;20.57;;;17.27;;
10059;SDS011;5069;49.306;8.636;2022-08-19T06:42:34;19.40;;;17.43;;
10059;SDS011;5069;49.306;8.636;2022-08-19T06:45:37;20.27;;;18.17;;
10059;SDS011;5069;49.306;8.636;2022-08-19T06:48:40;20.07;;;17.97;;
10059;SDS011;5069;49.306;8.636;2022-08-19T06:51:46;20.73;;;17.90;;
10059;SDS011;5069;49.306;8.636;2022-08-19T06:54:49;18.20;;;16.50;;
10059;SDS011;5069;49.306;8.636;2022-08-19T06:57:56;18.63;;;16.73;;
10059;SDS011;5069;49.306;8.636;2022-08-19T07:01:01;20.20;;;15.77;;
10059;SDS011;5069;49.306;8.636;2022-08-19T07:04:09;16.97;;;15.20;;
10059;SDS011;5069;49.306;8.636;2022-08-19T07:07:13;16.43;;;14.73;;
10059;SDS011;5069;49.306;8.636;2022-08-19T07:10:21;15.30;;;13.70;;
10059;SDS011;5069;49.306;8.636;2022-08-19T07:13:25;18.50;;;14.53;;
10059;SDS011;5069;49.306;8.636;2022-08-19T07:16:27;16.23;;;14.37;;
10059;SDS011;5069;49.306;8.636;2022-08-19T07:19:30;18.00;;;13.67;;
10059;SDS011;5069;49.306;8.636;2022-08-19T07:22:33;14.43;;;13.03;;
10059;SDS011;5069;49.306;8.636;2022-08-19T07:25:36;14.33;;;12.93;;
10059;SDS011;5069;49.306;8.636;2022-08-19T07:28:38;14.93;;;13.53;;
10059;SDS011;5069;49.306;8.636;2022-08-19T07:31:51;16.63;;;12.70;;
10059;SDS011;5069;49.306;8.636;2022-08-19T07:34:57;14.47;;;13.03;;
10059;SDS011;5069;49.306;8.636;2022-08-19T07:38:01;14.60;;;13.20;;
10059;SDS011;5069;49.306;8.636;2022-08-19T07:41:04;14.17;;;12.77;;
10059;SDS011;5069;49.306;8.636;2022-08-19T07:44:06;13.40;;;12.03;;
10059;SDS011;5069;49.306;8.636;2022-08-19T07:47:09;13.47;;;11.97;;
10059;SDS011;5069;49.306;8.636;2022-08-19T07:50:30;12.53;;;11.30;;
10059;SDS011;5069;49.306;8.636;2022-08-19T07:53:32;12.37;;;11.07;;
10059;SDS011;5069;49.306;8.636;2022-08-19T07:56:39;12.57;;;11.27;;
10059;SDS011;5069;49.306;8.636;2022-08-19T07:59:41;12.67;;;11.37;;
10059;SDS011;5069;49.306;8.636;2022-08-19T08:02:42;12.23;;;10.70;;
10059;SDS011;5069;49.306;8.636;2022-08-19T08:05:44;12.87;;;10.80;;
10059;SDS011;5069;49.306;8.636;2022-08-19T08:09:06;13.13;;;11.50;;
10059;SDS011;5069;49.306;8.636;2022-08-19T08:12:14;11.40;;;10.40;;
10059;SDS011;5069;49.306;8.636;2022-08-19T08:15:35;11.23;;;10.10;;
10059;SDS011;5069;49.306;8.636;2022-08-19T08:18:43;11.77;;;10.67;;
10059;SDS011;5069;49.306;8.636;2022-08-19T08:21:51;11.23;;;10.13;;
10059;SDS011;5069;49.306;8.636;2022-08-19T08:24:54;14.43;;;10.20;;
10059;SDS011;5069;49.306;8.636;2022-08-19T08:27:59;11.67;;;9.77;;
10059;SDS011;5069;49.306;8.636;2022-08-19T08:31:01;10.23;;;8.80;;
10059;SDS011;5069;49.306;8.636;2022-08-19T08:34:10;10.17;;;9.03;;
10059;SDS011;5069;49.306;8.636;2022-08-19T08:37:12;10.53;;;9.43;;
10059;SDS011;5069;49.306;8.636;2022-08-19T08:43:44;9.13;;;8.33;;
10059;SDS011;5069;49.306;8.636;2022-08-19T08:50:31;9.30;;;8.43;;
10059;SDS011;5069;49.306;8.636;2022-08-19T08:53:41;12.07;;;7.90;;
10059;SDS011;5069;49.306;8.636;2022-08-19T08:56:44;11.63;;;8.60;;
10059;SDS011;5069;49.306;8.636;2022-08-19T08:59:47;8.40;;;7.53;;
10059;SDS011;5069;49.306;8.636;2022-08-19T09:02:53;10.43;;;8.53;;
10059;SDS011;5069;49.306;8.636;2022-08-19T09:06:02;11.00;;;7.00;;
10059;SDS011;5069;49.306;8.636;2022-08-19T09:15:48;7.60;;;6.90;;
10059;SDS011;5069;49.306;8.636;2022-08-19T09:18:56;7.20;;;6.50;;
10059;SDS011;5069;49.306;8.636;2022-08-19T09:22:02;9.63;;;6.10;;
10059;SDS011;5069;49.306;8.636;2022-08-19T09:25:05;8.37;;;5.80;;
10059;SDS011;5069;49.306;8.636;2022-08-19T09:28:09;6.90;;;6.27;;
10059;SDS011;5069;49.306;8.636;2022-08-19T09:31:23;7.50;;;5.93;;
10059;SDS011;5069;49.306;8.636;2022-08-19T09:34:27;6.93;;;5.77;;
10059;SDS011;5069;49.306;8.636;2022-08-19T09:37:30;9.10;;;7.03;;
10059;SDS011;5069;49.306;8.636;2022-08-19T09:40:33;7.57;;;6.87;;
10059;SDS011;5069;49.306;8.636;2022-08-19T09:43:39;7.03;;;6.30;;
10059;SDS011;5069;49.306;8.636;2022-08-19T09:46:45;7.20;;;6.00;;
10059;SDS011;5069;49.306;8.636;2022-08-19T09:49:48;7.10;;;6.50;;
10059;SDS011;5069;49.306;8.636;2022-08-19T09:52:50;8.10;;;7.38;;
10059;SDS011;5069;49.306;8.636;2022-08-19T09:55:57;7.63;;;6.27;;
10059;SDS011;5069;49.306;8.636;2022-08-19T09:58:59;6.27;;;5.67;;
10059;SDS011;5069;49.306;8.636;2022-08-19T10:02:01;7.00;;;5.90;;
10059;SDS011;5069;49.306;8.636;2022-08-19T10:05:11;7.50;;;6.00;;
10059;SDS011;5069;49.306;8.636;2022-08-19T10:08:33;8.57;;;5.63;;
10059;SDS011;5069;49.306;8.636;2022-08-19T10:11:39;6.80;;;5.80;;
10059;SDS011;5069;49.306;8.636;2022-08-19T10:14:52;5.17;;;4.67;;
10059;SDS011;5069;49.306;8.636;2022-08-19T10:17:55;7.03;;;5.50;;
10059;SDS011;5069;49.306;8.636;2022-08-19T10:21:09;6.30;;;5.70;;
10059;SDS011;5069;49.306;8.636;2022-08-19T10:24:16;6.40;;;5.80;;
10059;SDS011;5069;49.306;8.636;2022-08-19T10:27:18;6.50;;;5.90;;
10059;SDS011;5069;49.306;8.636;2022-08-19T10:30:20;7.03;;;5.75;;
10059;SDS011;5069;49.306;8.636;2022-08-19T10:33:25;6.73;;;5.93;;
10059;SDS011;5069;49.306;8.636;2022-08-19T10:36:46;6.07;;;5.50;;
10059;SDS011;5069;49.306;8.636;2022-08-19T10:39:56;6.43;;;5.43;;
10059;SDS011;5069;49.306;8.636;2022-08-19T10:42:58;7.72;;;6.22;;
10059;SDS011;5069;49.306;8.636;2022-08-19T10:45:59;8.10;;;5.75;;
10059;SDS011;5069;49.306;8.636;2022-08-19T10:49:01;6.32;;;5.60;;
10059;SDS011;5069;49.306;8.636;2022-08-19T10:52:05;7.20;;;6.60;;
10059;SDS011;5069;49.306;8.636;2022-08-19T10:55:39;6.55;;;5.90;;
10059;SDS011;5069;49.306;8.636;2022-08-19T10:58:59;6.40;;;5.75;;
10059;SDS011;5069;49.306;8.636;2022-08-19T11:02:01;7.28;;;5.63;;
10059;SDS011;5069;49.306;8.636;2022-08-19T11:05:04;5.95;;;5.32;;
10059;SDS011;5069;49.306;8.636;2022-08-19T11:08:12;5.15;;;4.70;;
10059;SDS011;5069;49.306;8.636;2022-08-19T11:11:24;5.75;;;5.25;;
10059;SDS011;5069;49.306;8.636;2022-08-19T12:58:09;6.60;;;6.10;;
10059;SDS011;5069;49.306;8.636;2022-08-19T13:01:11;6.43;;;5.82;;
10059;SDS011;5069;49.306;8.636;2022-08-19T13:12:45;5.95;;;5.45;;
10059;SDS011;5069;49.306;8.636;2022-08-19T13:20:42;7.13;;;5.55;;
10059;SDS011;5069;49.306;8.636;2022-08-19T13:23:53;6.00;;;5.50;;
10059;SDS011;5069;49.306;8.636;2022-08-19T13:26:55;5.00;;;4.57;;
10059;SDS011;5069;49.306;8.636;2022-08-19T13:29:56;5.25;;;4.85;;
10059;SDS011;5069;49.306;8.636;2022-08-19T13:37:46;6.82;;;4.47;;
10059;SDS011;5069;49.306;8.636;2022-08-19T13:40:49;4.70;;;4.35;;
10059;SDS011;5069;49.306;8.636;2022-08-19T13:43:53;7.63;;;4.65;;
10059;SDS011;5069;49.306;8.636;2022-08-19T13:46:59;5.22;;;4.82;;
10059;SDS011;5069;49.306;8.636;2022-08-19T13:50:05;5.40;;;4.90;;
10059;SDS011;5069;49.306;8.636;2022-08-19T13:53:08;5.78;;;4.53;;
10059;SDS011;5069;49.306;8.636;2022-08-19T13:56:14;5.05;;;4.65;;
10059;SDS011;5069;49.306;8.636;2022-08-19T13:59:17;4.60;;;4.20;;
10059;SDS011;5069;49.306;8.636;2022-08-19T14:02:19;4.60;;;4.13;;
10059;SDS011;5069;49.306;8.636;2022-08-19T14:05:20;5.03;;;4.63;;
10059;SDS011;5069;49.306;8.636;2022-08-19T14:08:23;5.30;;;4.38;;
10059;SDS011;5069;49.306;8.636;2022-08-19T14:11:24;5.47;;;4.82;;
10059;SDS011;5069;49.306;8.636;2022-08-19T14:14:27;5.13;;;4.72;;
10059;SDS011;5069;49.306;8.636;2022-08-19T14:17:28;5.15;;;4.75;;
10059;SDS011;5069;49.306;8.636;2022-08-19T14:20:30;5.90;;;4.78;;
10059;SDS011;5069;49.306;8.636;2022-08-19T14:23:36;5.10;;;4.70;;
10059;SDS011;5069;49.306;8.636;2022-08-19T14:26:37;5.35;;;4.85;;
10059;SDS011;5069;49.306;8.636;2022-08-19T14:29:39;5.13;;;4.63;;
10059;SDS011;5069;49.306;8.636;2022-08-19T14:32:41;5.93;;;4.47;;
10059;SDS011;5069;49.306;8.636;2022-08-19T14:35:44;4.50;;;4.10;;
10059;SDS011;5069;49.306;8.636;2022-08-19T14:38:46;5.68;;;4.53;;
10059;SDS011;5069;49.306;8.636;2022-08-19T14:41:47;4.80;;;4.38;;
10059;SDS011;5069;49.306;8.636;2022-08-19T14:44:49;4.85;;;4.43;;
10059;SDS011;5069;49.306;8.636;2022-08-19T14:47:50;4.60;;;4.20;;
10059;SDS011;5069;49.306;8.636;2022-08-19T14:50:52;4.85;;;4.43;;
10059;SDS011;5069;49.306;8.636;2022-08-19T14:53:53;4.45;;;4.03;;
10059;SDS011;5069;49.306;8.636;2022-08-19T14:56:55;4.65;;;4.28;;
10059;SDS011;5069;49.306;8.636;2022-08-19T14:59:57;4.50;;;4.10;;
10059;SDS011;5069;49.306;8.636;2022-08-19T15:03:00;4.53;;;4.13;;
10059;SDS011;5069;49.306;8.636;2022-08-19T15:06:02;4.10;;;3.80;;
10059;SDS011;5069;49.306;8.636;2022-08-19T15:09:05;4.55;;;4.15;;
10059;SDS011;5069;49.306;8.636;2022-08-19T15:12:07;6.63;;;4.20;;
10059;SDS011;5069;49.306;8.636;2022-08-19T15:15:10;4.47;;;3.97;;
10059;SDS011;5069;49.306;8.636;2022-08-19T15:18:14;9.70;;;4.03;;
10059;SDS011;5069;49.306;8.636;2022-08-19T15:21:16;4.43;;;4.07;;
10059;SDS011;5069;49.306;8.636;2022-08-19T15:24:27;5.32;;;4.05;;
10059;SDS011;5069;49.306;8.636;2022-08-19T15:27:29;4.13;;;3.60;;
10059;SDS011;5069;49.306;8.636;2022-08-19T15:30:30;4.05;;;3.75;;
10059;SDS011;5069;49.306;8.636;2022-08-19T15:33:34;4.28;;;3.97;;
10059;SDS011;5069;49.306;8.636;2022-08-19T15:36:41;4.75;;;4.00;;
10059;SDS011;5069;49.306;8.636;2022-08-19T15:39:42;4.15;;;3.75;;
10059;SDS011;5069;49.306;8.636;2022-08-19T15:42:44;4.95;;;3.75;;
10059;SDS011;5069;49.306;8.636;2022-08-19T15:45:46;4.45;;;3.80;;
10059;SDS011;5069;49.306;8.636;2022-08-19T15:48:50;3.70;;;3.40;;
10059;SDS011;5069;49.306;8.636;2022-08-19T15:51:59;4.28;;;3.78;;
10059;SDS011;5069;49.306;8.636;2022-08-19T15:55:03;4.85;;;4.07;;
10059;SDS011;5069;49.306;8.636;2022-08-19T15:58:08;4.18;;;3.78;;
10059;SDS011;5069;49.306;8.636;2022-08-19T16:01:30;4.82;;;4.43;;
10059;SDS011;5069;49.306;8.636;2022-08-19T16:04:41;4.82;;;3.75;;
10059;SDS011;5069;49.306;8.636;2022-08-19T16:08:01;6.38;;;3.65;;
10059;SDS011;5069;49.306;8.636;2022-08-19T16:11:02;4.55;;;3.97;;
10059;SDS011;5069;49.306;8.636;2022-08-19T16:14:04;5.38;;;4.15;;
10059;SDS011;5069;49.306;8.636;2022-08-19T16:17:08;4.97;;;4.00;;
10059;SDS011;5069;49.306;8.636;2022-08-19T16:20:12;4.75;;;4.30;;
10059;SDS011;5069;49.306;8.636;2022-08-19T16:23:14;4.70;;;4.10;;
10059;SDS011;5069;49.306;8.636;2022-08-19T16:26:17;4.32;;;4.03;;
10059;SDS011;5069;49.306;8.636;2022-08-19T16:29:20;4.72;;;4.32;;
10059;SDS011;5069;49.306;8.636;2022-08-19T16:32:41;6.63;;;4.30;;
10059;SDS011;5069;49.306;8.636;2022-08-19T16:35:44;4.32;;;3.97;;
10059;SDS011;5069;49.306;8.636;2022-08-19T16:38:52;5.13;;;4.20;;
10059;SDS011;5069;49.306;8.636;2022-08-19T16:41:54;4.25;;;3.67;;
10059;SDS011;5069;49.306;8.636;2022-08-19T16:44:55;4.75;;;4.25;;
10059;SDS011;5069;49.306;8.636;2022-08-19T16:47:57;4.43;;;4.10;;
10059;SDS011;5069;49.306;8.636;2022-08-19T16:50:59;4.72;;;4.30;;
10059;SDS011;5069;49.306;8.636;2022-08-19T16:54:03;8.32;;;3.97;;
10059;SDS011;5069;49.306;8.636;2022-08-19T16:57:05;4.18;;;3.88;;
10059;SDS011;5069;49.306;8.636;2022-08-19T17:00:12;4.47;;;4.07;;
10059;SDS011;5069;49.306;8.636;2022-08-19T17:03:15;6.88;;;4.22;;
10059;SDS011;5069;49.306;8.636;2022-08-19T17:06:19;4.65;;;4.00;;
10059;SDS011;5069;49.306;8.636;2022-08-19T17:09:22;5.30;;;4.22;;
10059;SDS011;5069;49.306;8.636;2022-08-19T17:12:26;4.63;;;4.20;;
10059;SDS011;5069;49.306;8.636;2022-08-19T17:15:32;4.55;;;4.10;;
10059;SDS011;5069;49.306;8.636;2022-08-19T17:18:33;4.93;;;4.45;;
10059;SDS011;5069;49.306;8.636;2022-08-19T17:21:35;5.15;;;4.00;;
10059;SDS011;5069;49.306;8.636;2022-08-19T17:24:39;4.57;;;4.15;;
10059;SDS011;5069;49.306;8.636;2022-08-19T17:27:41;4.95;;;4.55;;
10059;SDS011;5069;49.306;8.636;2022-08-19T17:30:42;4.60;;;4.20;;
10059;SDS011;5069;49.306;8.636;2022-08-19T17:33:44;8.57;;;4.20;;
10059;SDS011;5069;49.306;8.636;2022-08-19T17:36:49;5.00;;;4.00;;
10059;SDS011;5069;49.306;8.636;2022-08-19T17:39:50;5.45;;;4.05;;
10059;SDS011;5069;49.306;8.636;2022-08-19T17:42:52;4.75;;;4.15;;
10059;SDS011;5069;49.306;8.636;2022-08-19T17:45:54;6.10;;;3.90;;
10059;SDS011;5069;49.306;8.636;2022-08-19T17:48:55;5.75;;;4.13;;
10059;SDS011;5069;49.306;8.636;2022-08-19T17:51:57;5.40;;;4.25;;
10059;SDS011;5069;49.306;8.636;2022-08-19T17:55:00;6.28;;;4.20;;
10059;SDS011;5069;49.306;8.636;2022-08-19T17:58:02;4.78;;;4.32;;
10059;SDS011;5069;49.306;8.636;2022-08-19T18:01:11;9.07;;;4.32;;
10059;SDS011;5069;49.306;8.636;2022-08-19T18:04:13;5.88;;;4.00;;
10059;SDS011;5069;49.306;8.636;2022-08-19T18:07:16;5.32;;;4.47;;
10059;SDS011;5069;49.306;8.636;2022-08-19T18:10:22;5.72;;;4.38;;
10059;SDS011;5069;49.306;8.636;2022-08-19T18:13:35;4.72;;;4.28;;
10059;SDS011;5069;49.306;8.636;2022-08-19T18:16:36;4.72;;;4.25;;
10059;SDS011;5069;49.306;8.636;2022-08-19T18:19:39;6.70;;;4.57;;
10059;SDS011;5069;49.306;8.636;2022-08-19T18:22:45;5.75;;;4.22;;
10059;SDS011;5069;49.306;8.636;2022-08-19T18:25:48;5.63;;;4.90;;
10059;SDS011;5069;49.306;8.636;2022-08-19T18:28:50;5.80;;;5.30;;
10059;SDS011;5069;49.306;8.636;2022-08-19T18:31:52;6.43;;;5.28;;
10059;SDS011;5069;49.306;8.636;2022-08-19T18:34:58;5.70;;;5.05;;
10059;SDS011;5069;49.306;8.636;2022-08-19T18:38:04;6.20;;;5.60;;
10059;SDS011;5069;49.306;8.636;2022-08-19T18:41:26;8.65;;;5.30;;
10059;SDS011;5069;49.306;8.636;2022-08-19T18:44:46;5.82;;;5.30;;
10059;SDS011;5069;49.306;8.636;2022-08-19T18:48:06;6.15;;;5.55;;
10059;SDS011;5069;49.306;8.636;2022-08-19T18:51:28;5.65;;;5.13;;
10059;SDS011;5069;49.306;8.636;2022-08-19T18:54:30;5.88;;;5.32;;
10059;SDS011;5069;49.306;8.636;2022-08-19T18:57:33;5.90;;;5.40;;
10059;SDS011;5069;49.306;8.636;2022-08-19T19:00:34;6.07;;;5.03;;
10059;SDS011;5069;49.306;8.636;2022-08-19T19:03:40;6.07;;;5.57;;
10059;SDS011;5069;49.306;8.636;2022-08-19T19:07:02;6.20;;;5.60;;
10059;SDS011;5069;49.306;8.636;2022-08-19T19:10:06;7.97;;;5.80;;
10059;SDS011;5069;49.306;8.636;2022-08-19T19:13:07;5.97;;;5.47;;
10059;SDS011;5069;49.306;8.636;2022-08-19T19:16:10;6.22;;;5.63;;
10059;SDS011;5069;49.306;8.636;2022-08-19T19:19:11;6.90;;;5.18;;
10059;SDS011;5069;49.306;8.636;2022-08-19T19:22:20;6.35;;;5.75;;
10059;SDS011;5069;49.306;8.636;2022-08-19T19:25:22;6.00;;;5.50;;
10059;SDS011;5069;49.306;8.636;2022-08-19T19:28:26;5.78;;;5.28;;
10059;SDS011;5069;49.306;8.636;2022-08-19T19:31:29;6.22;;;5.70;;
10059;SDS011;5069;49.306;8.636;2022-08-19T19:34:33;6.32;;;5.70;;
10059;SDS011;5069;49.306;8.636;2022-08-19T19:37:37;6.68;;;5.80;;
10059;SDS011;5069;49.306;8.636;2022-08-19T19:40:39;7.03;;;6.15;;
10059;SDS011;5069;49.306;8.636;2022-08-19T19:43:40;6.38;;;5.70;;
10059;SDS011;5069;49.306;8.636;2022-08-19T19:46:42;8.07;;;5.47;;
10059;SDS011;5069;49.306;8.636;2022-08-19T19:49:44;6.10;;;5.22;;
10059;SDS011;5069;49.306;8.636;2022-08-19T19:53:06;9.27;;;5.38;;
10059;SDS011;5069;49.306;8.636;2022-08-19T19:56:08;6.00;;;5.50;;
10059;SDS011;5069;49.306;8.636;2022-08-19T19:59:10;7.00;;;5.60;;
10059;SDS011;5069;49.306;8.636;2022-08-19T20:02:11;8.88;;;5.97;;
10059;SDS011;5069;49.306;8.636;2022-08-19T20:05:18;10.25;;;5.97;;
10059;SDS011;5069;49.306;8.636;2022-08-19T20:08:23;6.38;;;5.78;;
10059;SDS011;5069;49.306;8.636;2022-08-19T20:11:45;7.28;;;6.20;;
10059;SDS011;5069;49.306;8.636;2022-08-19T20:14:54;7.03;;;6.35;;
10059;SDS011;5069;49.306;8.636;2022-08-19T20:17:56;7.00;;;6.30;;
10059;SDS011;5069;49.306;8.636;2022-08-19T20:20:58;6.65;;;5.90;;
10059;SDS011;5069;49.306;8.636;2022-08-19T20:24:00;6.72;;;6.03;;
10059;SDS011;5069;49.306;8.636;2022-08-19T20:27:10;7.10;;;6.35;;
10059;SDS011;5069;49.306;8.636;2022-08-19T20:30:13;6.78;;;6.15;;
10059;SDS011;5069;49.306;8.636;2022-08-19T20:33:19;7.00;;;6.38;;
10059;SDS011;5069;49.306;8.636;2022-08-19T20:36:21;7.10;;;6.50;;
10059;SDS011;5069;49.306;8.636;2022-08-19T20:39:24;10.57;;;7.18;;
10059;SDS011;5069;49.306;8.636;2022-08-19T20:42:26;7.93;;;7.07;;
10059;SDS011;5069;49.306;8.636;2022-08-19T20:49:09;10.77;;;6.80;;
10059;SDS011;5069;49.306;8.636;2022-08-19T20:52:11;8.32;;;7.22;;
10059;SDS011;5069;49.306;8.636;2022-08-19T20:55:12;7.38;;;6.72;;